Aviation Digital Data Service (ADDS)

Output produced by METARs form (1129 UTC 22 September 2017)
found at http://aviationweather.gov/adds/metars/
 
KSYR 221125Z 2212/2312 VRB03KT P6SM BKN250 
     FM221400 35003KT P6SM SCT250